sensor_id;sensor_type;location;lat;lon;timestamp;temperature;humidity
38359;DHT22;42072;48.044;14.416;2023-06-10T00:00:01;14.60;99.90
38359;DHT22;42072;48.044;14.416;2023-06-10T00:02:28;14.60;99.90
38359;DHT22;42072;48.044;14.416;2023-06-10T00:04:55;14.60;99.90
38359;DHT22;42072;48.044;14.416;2023-06-10T00:07:24;14.50;99.90
38359;DHT22;42072;48.044;14.416;2023-06-10T00:09:51;14.50;99.90
38359;DHT22;42072;48.044;14.416;2023-06-10T00:12:19;14.40;99.90
38359;DHT22;42072;48.044;14.416;2023-06-10T00:14:47;14.40;99.90
38359;DHT22;42072;48.044;14.416;2023-06-10T00:17:17;14.30;99.90
38359;DHT22;42072;48.044;14.416;2023-06-10T00:19:44;14.30;99.90
38359;DHT22;42072;48.044;14.416;2023-06-10T00:22:14;14.20;99.90
38359;DHT22;42072;48.044;14.416;2023-06-10T00:24:41;14.20;99.90
38359;DHT22;42072;48.044;14.416;2023-06-10T00:27:09;14.10;99.90
38359;DHT22;42072;48.044;14.416;2023-06-10T00:29:37;14.10;99.90
38359;DHT22;42072;48.044;14.416;2023-06-10T00:32:06;14.10;99.90
38359;DHT22;42072;48.044;14.416;2023-06-10T00:34:33;14.10;99.90
38359;DHT22;42072;48.044;14.416;2023-06-10T00:37:01;14.00;99.90
38359;DHT22;42072;48.044;14.416;2023-06-10T00:39:28;14.00;1.00
38359;DHT22;42072;48.044;14.416;2023-06-10T00:41:55;13.90;1.00
38359;DHT22;42072;48.044;14.416;2023-06-10T00:44:22;13.90;1.00
38359;DHT22;42072;48.044;14.416;2023-06-10T00:46:50;13.90;1.00
38359;DHT22;42072;48.044;14.416;2023-06-10T00:49:19;13.80;1.00
38359;DHT22;42072;48.044;14.416;2023-06-10T00:51:47;13.80;1.00
38359;DHT22;42072;48.044;14.416;2023-06-10T00:54:14;13.70;1.00
38359;DHT22;42072;48.044;14.416;2023-06-10T00:56:42;13.80;1.00
38359;DHT22;42072;48.044;14.416;2023-06-10T00:59:10;13.80;1.00
38359;DHT22;42072;48.044;14.416;2023-06-10T01:01:37;13.80;1.00
38359;DHT22;42072;48.044;14.416;2023-06-10T01:04:06;13.80;1.00
38359;DHT22;42072;48.044;14.416;2023-06-10T01:09:32;13.80;1.00
38359;DHT22;42072;48.044;14.416;2023-06-10T01:12:01;13.80;1.00
38359;DHT22;42072;48.044;14.416;2023-06-10T01:14:37;13.70;1.00
38359;DHT22;42072;48.044;14.416;2023-06-10T01:17:12;13.70;1.00
38359;DHT22;42072;48.044;14.416;2023-06-10T01:19:44;13.70;1.00
38359;DHT22;42072;48.044;14.416;2023-06-10T01:22:11;13.70;1.00
38359;DHT22;42072;48.044;14.416;2023-06-10T01:24:43;13.60;1.00
38359;DHT22;42072;48.044;14.416;2023-06-10T01:27:14;13.60;1.00
38359;DHT22;42072;48.044;14.416;2023-06-10T01:29:52;13.60;1.00
38359;DHT22;42072;48.044;14.416;2023-06-10T01:32:29;13.60;1.00
38359;DHT22;42072;48.044;14.416;2023-06-10T01:35:00;13.60;1.00
38359;DHT22;42072;48.044;14.416;2023-06-10T01:37:28;13.60;1.00
38359;DHT22;42072;48.044;14.416;2023-06-10T01:39:58;13.60;1.00
38359;DHT22;42072;48.044;14.416;2023-06-10T01:42:26;13.60;1.00
38359;DHT22;42072;48.044;14.416;2023-06-10T01:44:54;13.50;1.00
38359;DHT22;42072;48.044;14.416;2023-06-10T01:47:21;13.50;1.00
38359;DHT22;42072;48.044;14.416;2023-06-10T01:49:49;13.50;1.00
38359;DHT22;42072;48.044;14.416;2023-06-10T01:52:16;13.50;1.00
38359;DHT22;42072;48.044;14.416;2023-06-10T01:54:44;13.40;1.00
38359;DHT22;42072;48.044;14.416;2023-06-10T01:57:11;13.40;1.00
38359;DHT22;42072;48.044;14.416;2023-06-10T01:59:39;13.40;1.00
38359;DHT22;42072;48.044;14.416;2023-06-10T02:02:07;13.30;1.00
38359;DHT22;42072;48.044;14.416;2023-06-10T02:04:34;13.30;1.00
38359;DHT22;42072;48.044;14.416;2023-06-10T02:07:01;13.30;1.00
38359;DHT22;42072;48.044;14.416;2023-06-10T02:09:31;13.20;1.00
38359;DHT22;42072;48.044;14.416;2023-06-10T02:11:58;13.20;1.00
38359;DHT22;42072;48.044;14.416;2023-06-10T02:14:25;13.10;1.00
38359;DHT22;42072;48.044;14.416;2023-06-10T02:16:52;13.10;1.00
38359;DHT22;42072;48.044;14.416;2023-06-10T02:19:23;13.10;1.00
38359;DHT22;42072;48.044;14.416;2023-06-10T02:21:52;13.00;1.00
38359;DHT22;42072;48.044;14.416;2023-06-10T02:24:19;13.00;1.00
38359;DHT22;42072;48.044;14.416;2023-06-10T02:26:46;13.00;1.00
38359;DHT22;42072;48.044;14.416;2023-06-10T02:29:15;13.00;1.00
38359;DHT22;42072;48.044;14.416;2023-06-10T02:31:42;13.00;1.00
38359;DHT22;42072;48.044;14.416;2023-06-10T02:34:09;13.00;1.00
38359;DHT22;42072;48.044;14.416;2023-06-10T02:36:37;13.00;1.00
38359;DHT22;42072;48.044;14.416;2023-06-10T02:39:04;13.00;1.00
38359;DHT22;42072;48.044;14.416;2023-06-10T02:41:31;13.00;1.00
38359;DHT22;42072;48.044;14.416;2023-06-10T02:43:59;13.00;1.00
38359;DHT22;42072;48.044;14.416;2023-06-10T02:46:26;13.00;1.00
38359;DHT22;42072;48.044;14.416;2023-06-10T02:48:55;13.00;1.00
38359;DHT22;42072;48.044;14.416;2023-06-10T02:51:23;13.00;1.00
38359;DHT22;42072;48.044;14.416;2023-06-10T02:53:50;12.90;1.00
38359;DHT22;42072;48.044;14.416;2023-06-10T02:56:18;12.90;1.00
38359;DHT22;42072;48.044;14.416;2023-06-10T02:58:45;12.80;1.00
38359;DHT22;42072;48.044;14.416;2023-06-10T03:01:14;12.70;1.00
38359;DHT22;42072;48.044;14.416;2023-06-10T03:03:41;12.60;1.00
38359;DHT22;42072;48.044;14.416;2023-06-10T03:06:10;12.60;1.00
38359;DHT22;42072;48.044;14.416;2023-06-10T03:08:38;12.70;1.00
38359;DHT22;42072;48.044;14.416;2023-06-10T03:11:05;12.70;1.00
38359;DHT22;42072;48.044;14.416;2023-06-10T03:13:33;12.70;1.00
38359;DHT22;42072;48.044;14.416;2023-06-10T03:16:00;12.70;1.00
38359;DHT22;42072;48.044;14.416;2023-06-10T03:18:28;12.60;1.00
38359;DHT22;42072;48.044;14.416;2023-06-10T03:20:55;12.60;1.00
38359;DHT22;42072;48.044;14.416;2023-06-10T03:23:23;12.60;1.00
38359;DHT22;42072;48.044;14.416;2023-06-10T03:25:51;12.70;1.00
38359;DHT22;42072;48.044;14.416;2023-06-10T03:28:18;12.70;1.00
38359;DHT22;42072;48.044;14.416;2023-06-10T03:30:45;12.80;1.00
38359;DHT22;42072;48.044;14.416;2023-06-10T03:33:12;12.80;1.00
38359;DHT22;42072;48.044;14.416;2023-06-10T03:35:40;12.80;1.00
38359;DHT22;42072;48.044;14.416;2023-06-10T03:38:08;12.80;1.00
38359;DHT22;42072;48.044;14.416;2023-06-10T03:40:35;12.80;1.00
38359;DHT22;42072;48.044;14.416;2023-06-10T03:43:03;12.80;1.00
38359;DHT22;42072;48.044;14.416;2023-06-10T03:45:30;12.80;1.00
38359;DHT22;42072;48.044;14.416;2023-06-10T03:47:59;12.90;1.00
38359;DHT22;42072;48.044;14.416;2023-06-10T03:50:27;13.00;1.00
38359;DHT22;42072;48.044;14.416;2023-06-10T03:52:54;13.10;1.00
38359;DHT22;42072;48.044;14.416;2023-06-10T03:55:22;13.20;1.00
38359;DHT22;42072;48.044;14.416;2023-06-10T03:57:50;13.30;99.90
38359;DHT22;42072;48.044;14.416;2023-06-10T04:00:18;13.40;99.90
38359;DHT22;42072;48.044;14.416;2023-06-10T04:02:48;13.50;99.90
38359;DHT22;42072;48.044;14.416;2023-06-10T04:05:17;13.70;99.90
38359;DHT22;42072;48.044;14.416;2023-06-10T04:07:44;13.80;99.90
38359;DHT22;42072;48.044;14.416;2023-06-10T04:10:12;14.00;99.90
38359;DHT22;42072;48.044;14.416;2023-06-10T04:12:39;14.00;99.90
38359;DHT22;42072;48.044;14.416;2023-06-10T04:15:07;14.10;99.90
38359;DHT22;42072;48.044;14.416;2023-06-10T04:17:35;14.20;99.90
38359;DHT22;42072;48.044;14.416;2023-06-10T04:20:02;14.40;99.90
38359;DHT22;42072;48.044;14.416;2023-06-10T04:22:33;14.50;99.90
38359;DHT22;42072;48.044;14.416;2023-06-10T04:25:00;14.50;99.90
38359;DHT22;42072;48.044;14.416;2023-06-10T04:27:28;14.60;99.90
38359;DHT22;42072;48.044;14.416;2023-06-10T04:29:55;14.60;99.90
38359;DHT22;42072;48.044;14.416;2023-06-10T04:32:22;14.70;99.90
38359;DHT22;42072;48.044;14.416;2023-06-10T04:34:49;14.80;99.90
38359;DHT22;42072;48.044;14.416;2023-06-10T04:37:17;14.90;99.90
38359;DHT22;42072;48.044;14.416;2023-06-10T04:39:45;15.00;99.90
38359;DHT22;42072;48.044;14.416;2023-06-10T04:42:12;15.10;86.20
38359;DHT22;42072;48.044;14.416;2023-06-10T04:44:40;15.20;70.00
38359;DHT22;42072;48.044;14.416;2023-06-10T04:47:07;15.30;54.50
38359;DHT22;42072;48.044;14.416;2023-06-10T04:49:35;15.30;46.80
38359;DHT22;42072;48.044;14.416;2023-06-10T04:52:03;15.40;49.00
38359;DHT22;42072;48.044;14.416;2023-06-10T04:54:31;15.50;39.20
38359;DHT22;42072;48.044;14.416;2023-06-10T04:56:59;15.60;22.20
38359;DHT22;42072;48.044;14.416;2023-06-10T04:59:27;15.70;18.10
38359;DHT22;42072;48.044;14.416;2023-06-10T05:01:55;15.80;10.40
38359;DHT22;42072;48.044;14.416;2023-06-10T05:04:22;15.80;2.80
38359;DHT22;42072;48.044;14.416;2023-06-10T05:06:49;15.90;1.00
38359;DHT22;42072;48.044;14.416;2023-06-10T05:09:16;15.90;1.00
38359;DHT22;42072;48.044;14.416;2023-06-10T05:11:43;16.00;1.00
38359;DHT22;42072;48.044;14.416;2023-06-10T05:14:12;16.00;1.00
38359;DHT22;42072;48.044;14.416;2023-06-10T05:16:39;16.00;1.00
38359;DHT22;42072;48.044;14.416;2023-06-10T05:19:06;16.10;1.00
38359;DHT22;42072;48.044;14.416;2023-06-10T05:21:34;16.20;1.00
38359;DHT22;42072;48.044;14.416;2023-06-10T05:24:02;16.40;1.00
38359;DHT22;42072;48.044;14.416;2023-06-10T05:26:29;16.50;1.00
38359;DHT22;42072;48.044;14.416;2023-06-10T05:28:58;16.60;1.00
38359;DHT22;42072;48.044;14.416;2023-06-10T05:31:25;16.80;1.00
38359;DHT22;42072;48.044;14.416;2023-06-10T05:33:53;17.00;1.00
38359;DHT22;42072;48.044;14.416;2023-06-10T05:36:20;17.10;1.00
38359;DHT22;42072;48.044;14.416;2023-06-10T05:38:48;17.20;1.00
38359;DHT22;42072;48.044;14.416;2023-06-10T05:41:15;17.30;1.00
38359;DHT22;42072;48.044;14.416;2023-06-10T05:43:43;17.40;1.00
38359;DHT22;42072;48.044;14.416;2023-06-10T05:46:10;17.60;1.00
38359;DHT22;42072;48.044;14.416;2023-06-10T05:48:37;17.80;1.00
38359;DHT22;42072;48.044;14.416;2023-06-10T05:51:05;18.00;1.00
38359;DHT22;42072;48.044;14.416;2023-06-10T05:53:32;18.00;1.00
38359;DHT22;42072;48.044;14.416;2023-06-10T05:56:00;18.10;1.00
38359;DHT22;42072;48.044;14.416;2023-06-10T05:58:27;18.00;1.00
38359;DHT22;42072;48.044;14.416;2023-06-10T06:00:54;18.00;1.00
38359;DHT22;42072;48.044;14.416;2023-06-10T06:03:21;18.00;1.00
38359;DHT22;42072;48.044;14.416;2023-06-10T06:05:49;18.10;1.00
38359;DHT22;42072;48.044;14.416;2023-06-10T06:08:16;18.20;1.00
38359;DHT22;42072;48.044;14.416;2023-06-10T06:10:45;18.30;1.00
38359;DHT22;42072;48.044;14.416;2023-06-10T06:13:15;18.20;1.00
38359;DHT22;42072;48.044;14.416;2023-06-10T06:15:42;18.20;1.00
38359;DHT22;42072;48.044;14.416;2023-06-10T06:18:09;18.40;1.00
38359;DHT22;42072;48.044;14.416;2023-06-10T06:20:36;18.60;1.00
38359;DHT22;42072;48.044;14.416;2023-06-10T06:23:04;18.80;99.90
38359;DHT22;42072;48.044;14.416;2023-06-10T06:25:31;19.10;99.90
38359;DHT22;42072;48.044;14.416;2023-06-10T06:27:58;19.00;99.90
38359;DHT22;42072;48.044;14.416;2023-06-10T06:30:25;19.20;99.90
38359;DHT22;42072;48.044;14.416;2023-06-10T06:32:52;19.40;99.90
38359;DHT22;42072;48.044;14.416;2023-06-10T06:35:20;19.70;99.90
38359;DHT22;42072;48.044;14.416;2023-06-10T06:37:47;20.00;99.90
38359;DHT22;42072;48.044;14.416;2023-06-10T06:40:14;20.40;99.90
38359;DHT22;42072;48.044;14.416;2023-06-10T06:42:41;20.70;99.90
38359;DHT22;42072;48.044;14.416;2023-06-10T06:45:09;21.00;99.90
38359;DHT22;42072;48.044;14.416;2023-06-10T06:47:37;21.30;99.90
38359;DHT22;42072;48.044;14.416;2023-06-10T06:50:05;21.50;99.90
38359;DHT22;42072;48.044;14.416;2023-06-10T06:52:32;21.80;99.90
38359;DHT22;42072;48.044;14.416;2023-06-10T06:54:59;22.00;99.90
38359;DHT22;42072;48.044;14.416;2023-06-10T06:57:27;21.90;99.90
38359;DHT22;42072;48.044;14.416;2023-06-10T06:59:54;21.80;99.90
38359;DHT22;42072;48.044;14.416;2023-06-10T07:02:21;21.80;99.90
38359;DHT22;42072;48.044;14.416;2023-06-10T07:04:49;21.80;99.90
38359;DHT22;42072;48.044;14.416;2023-06-10T07:07:16;22.10;99.90
38359;DHT22;42072;48.044;14.416;2023-06-10T07:09:44;22.30;99.90
38359;DHT22;42072;48.044;14.416;2023-06-10T07:12:11;22.30;99.90
38359;DHT22;42072;48.044;14.416;2023-06-10T07:14:38;22.50;99.90
38359;DHT22;42072;48.044;14.416;2023-06-10T07:17:06;22.30;99.90
38359;DHT22;42072;48.044;14.416;2023-06-10T07:19:33;21.70;99.90
38359;DHT22;42072;48.044;14.416;2023-06-10T07:22:00;21.70;99.90
38359;DHT22;42072;48.044;14.416;2023-06-10T07:24:27;21.80;99.90
38359;DHT22;42072;48.044;14.416;2023-06-10T07:26:55;22.00;99.90
38359;DHT22;42072;48.044;14.416;2023-06-10T07:29:22;21.80;99.90
38359;DHT22;42072;48.044;14.416;2023-06-10T07:31:49;21.70;99.90
38359;DHT22;42072;48.044;14.416;2023-06-10T07:34:16;22.00;99.90
38359;DHT22;42072;48.044;14.416;2023-06-10T07:36:44;22.10;99.90
38359;DHT22;42072;48.044;14.416;2023-06-10T07:39:11;22.30;99.90
38359;DHT22;42072;48.044;14.416;2023-06-10T07:41:38;22.80;99.90
38359;DHT22;42072;48.044;14.416;2023-06-10T07:44:05;23.10;99.90
38359;DHT22;42072;48.044;14.416;2023-06-10T07:46:33;23.00;99.90
38359;DHT22;42072;48.044;14.416;2023-06-10T07:49:00;23.00;99.90
38359;DHT22;42072;48.044;14.416;2023-06-10T07:51:27;23.20;99.90
38359;DHT22;42072;48.044;14.416;2023-06-10T07:53:55;23.60;99.90
38359;DHT22;42072;48.044;14.416;2023-06-10T07:56:22;24.10;99.90
38359;DHT22;42072;48.044;14.416;2023-06-10T07:58:49;23.80;99.90
38359;DHT22;42072;48.044;14.416;2023-06-10T08:01:16;24.00;99.90
38359;DHT22;42072;48.044;14.416;2023-06-10T08:03:43;24.00;99.90
38359;DHT22;42072;48.044;14.416;2023-06-10T08:06:11;24.40;99.90
38359;DHT22;42072;48.044;14.416;2023-06-10T08:08:38;24.00;99.90
38359;DHT22;42072;48.044;14.416;2023-06-10T08:11:13;23.70;99.90
38359;DHT22;42072;48.044;14.416;2023-06-10T08:13:40;24.00;99.90
38359;DHT22;42072;48.044;14.416;2023-06-10T08:16:08;24.20;99.90
38359;DHT22;42072;48.044;14.416;2023-06-10T08:18:35;24.20;99.90
38359;DHT22;42072;48.044;14.416;2023-06-10T08:21:02;24.20;99.90
38359;DHT22;42072;48.044;14.416;2023-06-10T08:23:29;24.10;99.90
38359;DHT22;42072;48.044;14.416;2023-06-10T08:25:57;24.00;99.90
38359;DHT22;42072;48.044;14.416;2023-06-10T08:28:25;24.30;99.90
38359;DHT22;42072;48.044;14.416;2023-06-10T08:30:52;24.40;99.90
38359;DHT22;42072;48.044;14.416;2023-06-10T08:33:23;23.90;99.90
38359;DHT22;42072;48.044;14.416;2023-06-10T08:35:50;24.10;99.90
38359;DHT22;42072;48.044;14.416;2023-06-10T08:38:17;24.10;99.90
38359;DHT22;42072;48.044;14.416;2023-06-10T08:40:45;24.20;99.90
38359;DHT22;42072;48.044;14.416;2023-06-10T08:43:22;24.40;99.90
38359;DHT22;42072;48.044;14.416;2023-06-10T08:45:52;23.90;99.90
38359;DHT22;42072;48.044;14.416;2023-06-10T08:48:22;23.80;99.90
38359;DHT22;42072;48.044;14.416;2023-06-10T08:50:50;24.00;99.90
38359;DHT22;42072;48.044;14.416;2023-06-10T08:53:18;24.30;99.90
38359;DHT22;42072;48.044;14.416;2023-06-10T08:55:51;24.70;99.90
38359;DHT22;42072;48.044;14.416;2023-06-10T08:58:21;25.10;99.90
38359;DHT22;42072;48.044;14.416;2023-06-10T09:00:50;24.80;99.90
38359;DHT22;42072;48.044;14.416;2023-06-10T09:03:18;25.00;99.90
38359;DHT22;42072;48.044;14.416;2023-06-10T09:05:45;24.40;99.90
38359;DHT22;42072;48.044;14.416;2023-06-10T09:08:13;24.40;99.90
38359;DHT22;42072;48.044;14.416;2023-06-10T09:10:42;24.70;99.90
38359;DHT22;42072;48.044;14.416;2023-06-10T09:13:09;25.10;99.90
38359;DHT22;42072;48.044;14.416;2023-06-10T09:15:37;25.30;99.90
38359;DHT22;42072;48.044;14.416;2023-06-10T09:18:04;25.30;99.90
38359;DHT22;42072;48.044;14.416;2023-06-10T09:20:32;25.50;99.90
38359;DHT22;42072;48.044;14.416;2023-06-10T09:23:00;25.80;99.90
38359;DHT22;42072;48.044;14.416;2023-06-10T09:25:37;25.50;99.90
38359;DHT22;42072;48.044;14.416;2023-06-10T09:28:09;24.90;99.90
38359;DHT22;42072;48.044;14.416;2023-06-10T09:30:40;24.20;99.90
38359;DHT22;42072;48.044;14.416;2023-06-10T09:33:12;24.90;99.90
38359;DHT22;42072;48.044;14.416;2023-06-10T09:35:49;25.00;99.90
38359;DHT22;42072;48.044;14.416;2023-06-10T09:38:21;24.80;99.90
38359;DHT22;42072;48.044;14.416;2023-06-10T09:43:18;24.40;99.90
38359;DHT22;42072;48.044;14.416;2023-06-10T09:45:48;24.90;99.90
38359;DHT22;42072;48.044;14.416;2023-06-10T09:48:16;25.20;99.90
38359;DHT22;42072;48.044;14.416;2023-06-10T09:50:44;25.00;99.90
38359;DHT22;42072;48.044;14.416;2023-06-10T09:53:12;25.50;99.90
38359;DHT22;42072;48.044;14.416;2023-06-10T09:55:41;25.80;99.90
38359;DHT22;42072;48.044;14.416;2023-06-10T09:58:08;25.80;99.90
38359;DHT22;42072;48.044;14.416;2023-06-10T10:00:36;25.90;99.90
38359;DHT22;42072;48.044;14.416;2023-06-10T10:03:04;25.70;99.90
38359;DHT22;42072;48.044;14.416;2023-06-10T10:05:31;26.20;99.90
38359;DHT22;42072;48.044;14.416;2023-06-10T10:07:58;26.50;99.90
38359;DHT22;42072;48.044;14.416;2023-06-10T10:10:26;26.80;99.90
38359;DHT22;42072;48.044;14.416;2023-06-10T10:12:56;26.10;99.90
38359;DHT22;42072;48.044;14.416;2023-06-10T10:15:29;25.50;99.90
38359;DHT22;42072;48.044;14.416;2023-06-10T10:18:10;25.40;99.90
38359;DHT22;42072;48.044;14.416;2023-06-10T10:20:46;25.00;99.90
38359;DHT22;42072;48.044;14.416;2023-06-10T10:23:15;24.70;99.90
38359;DHT22;42072;48.044;14.416;2023-06-10T10:25:43;24.70;99.90
38359;DHT22;42072;48.044;14.416;2023-06-10T10:28:12;24.90;99.90
38359;DHT22;42072;48.044;14.416;2023-06-10T10:30:42;24.80;99.90
38359;DHT22;42072;48.044;14.416;2023-06-10T10:33:17;25.40;99.90
38359;DHT22;42072;48.044;14.416;2023-06-10T10:35:46;25.70;99.90
38359;DHT22;42072;48.044;14.416;2023-06-10T10:38:14;25.70;99.90
38359;DHT22;42072;48.044;14.416;2023-06-10T10:40:42;25.80;99.90
38359;DHT22;42072;48.044;14.416;2023-06-10T10:43:11;25.80;99.90
38359;DHT22;42072;48.044;14.416;2023-06-10T10:45:39;25.60;99.90
38359;DHT22;42072;48.044;14.416;2023-06-10T10:48:08;26.10;99.90
38359;DHT22;42072;48.044;14.416;2023-06-10T10:50:39;26.40;99.90
38359;DHT22;42072;48.044;14.416;2023-06-10T10:53:08;26.40;99.90
38359;DHT22;42072;48.044;14.416;2023-06-10T10:55:35;26.20;99.90
38359;DHT22;42072;48.044;14.416;2023-06-10T10:58:07;26.40;99.90
38359;DHT22;42072;48.044;14.416;2023-06-10T11:00:36;26.70;99.90
38359;DHT22;42072;48.044;14.416;2023-06-10T11:03:06;26.40;99.90
38359;DHT22;42072;48.044;14.416;2023-06-10T11:05:46;26.70;99.90
38359;DHT22;42072;48.044;14.416;2023-06-10T11:10:56;25.80;99.90
38359;DHT22;42072;48.044;14.416;2023-06-10T11:13:25;25.10;99.90
38359;DHT22;42072;48.044;14.416;2023-06-10T11:15:57;25.50;99.90
38359;DHT22;42072;48.044;14.416;2023-06-10T11:18:40;25.80;99.90
38359;DHT22;42072;48.044;14.416;2023-06-10T11:21:08;25.90;99.90
38359;DHT22;42072;48.044;14.416;2023-06-10T11:23:39;26.60;99.90
38359;DHT22;42072;48.044;14.416;2023-06-10T11:31:30;26.60;99.90
38359;DHT22;42072;48.044;14.416;2023-06-10T11:34:03;26.40;99.90
38359;DHT22;42072;48.044;14.416;2023-06-10T11:36:42;26.60;99.90
38359;DHT22;42072;48.044;14.416;2023-06-10T11:39:12;26.80;99.90
38359;DHT22;42072;48.044;14.416;2023-06-10T11:41:40;27.10;99.90
38359;DHT22;42072;48.044;14.416;2023-06-10T11:44:10;27.60;99.90
38359;DHT22;42072;48.044;14.416;2023-06-10T11:46:38;27.20;99.90
38359;DHT22;42072;48.044;14.416;2023-06-10T11:49:06;27.40;99.90
38359;DHT22;42072;48.044;14.416;2023-06-10T11:51:35;27.60;99.90
38359;DHT22;42072;48.044;14.416;2023-06-10T11:54:04;27.50;99.90
38359;DHT22;42072;48.044;14.416;2023-06-10T11:56:32;27.40;99.90
38359;DHT22;42072;48.044;14.416;2023-06-10T11:59:03;27.70;99.90
38359;DHT22;42072;48.044;14.416;2023-06-10T12:01:42;27.70;99.90
38359;DHT22;42072;48.044;14.416;2023-06-10T12:04:15;27.60;99.90
38359;DHT22;42072;48.044;14.416;2023-06-10T12:06:52;27.30;99.90
38359;DHT22;42072;48.044;14.416;2023-06-10T12:11:57;27.00;99.90
38359;DHT22;42072;48.044;14.416;2023-06-10T12:20:09;27.10;99.90
38359;DHT22;42072;48.044;14.416;2023-06-10T12:22:41;26.50;99.90
38359;DHT22;42072;48.044;14.416;2023-06-10T12:25:11;26.70;99.90
38359;DHT22;42072;48.044;14.416;2023-06-10T12:27:41;26.50;99.90
38359;DHT22;42072;48.044;14.416;2023-06-10T12:30:19;27.00;99.90
38359;DHT22;42072;48.044;14.416;2023-06-10T12:32:47;27.00;99.90
38359;DHT22;42072;48.044;14.416;2023-06-10T12:35:25;27.10;99.90
38359;DHT22;42072;48.044;14.416;2023-06-10T12:40:32;26.90;99.90
38359;DHT22;42072;48.044;14.416;2023-06-10T12:42:59;27.50;99.90
38359;DHT22;42072;48.044;14.416;2023-06-10T12:45:29;27.40;99.90
38359;DHT22;42072;48.044;14.416;2023-06-10T12:48:11;27.50;99.90
38359;DHT22;42072;48.044;14.416;2023-06-10T12:50:41;27.70;99.90
38359;DHT22;42072;48.044;14.416;2023-06-10T12:53:10;28.20;99.90
38359;DHT22;42072;48.044;14.416;2023-06-10T12:55:39;28.80;99.90
38359;DHT22;42072;48.044;14.416;2023-06-10T12:58:06;28.90;99.90
38359;DHT22;42072;48.044;14.416;2023-06-10T13:00:34;28.40;99.90
38359;DHT22;42072;48.044;14.416;2023-06-10T13:03:02;27.30;99.90
38359;DHT22;42072;48.044;14.416;2023-06-10T13:05:30;26.00;99.90
38359;DHT22;42072;48.044;14.416;2023-06-10T13:07:58;24.50;99.90
38359;DHT22;42072;48.044;14.416;2023-06-10T13:10:26;23.50;99.90
38359;DHT22;42072;48.044;14.416;2023-06-10T13:12:54;23.10;99.90
38359;DHT22;42072;48.044;14.416;2023-06-10T13:15:22;22.50;99.90
38359;DHT22;42072;48.044;14.416;2023-06-10T13:17:49;22.00;99.90
38359;DHT22;42072;48.044;14.416;2023-06-10T13:20:18;21.60;99.90
38359;DHT22;42072;48.044;14.416;2023-06-10T13:22:46;21.50;99.90
38359;DHT22;42072;48.044;14.416;2023-06-10T13:25:14;21.50;99.90
38359;DHT22;42072;48.044;14.416;2023-06-10T13:27:42;21.40;99.90
38359;DHT22;42072;48.044;14.416;2023-06-10T13:30:10;21.10;99.90
38359;DHT22;42072;48.044;14.416;2023-06-10T13:32:38;21.10;99.90
38359;DHT22;42072;48.044;14.416;2023-06-10T13:35:06;20.90;99.90
38359;DHT22;42072;48.044;14.416;2023-06-10T13:37:35;20.90;99.90
38359;DHT22;42072;48.044;14.416;2023-06-10T13:40:03;20.90;99.90
38359;DHT22;42072;48.044;14.416;2023-06-10T13:42:30;21.00;99.90
38359;DHT22;42072;48.044;14.416;2023-06-10T13:44:58;21.10;99.90
38359;DHT22;42072;48.044;14.416;2023-06-10T13:47:25;21.20;99.90
38359;DHT22;42072;48.044;14.416;2023-06-10T13:49:52;21.10;99.90
38359;DHT22;42072;48.044;14.416;2023-06-10T13:52:19;21.00;1.00
38359;DHT22;42072;48.044;14.416;2023-06-10T13:54:47;21.00;1.00
38359;DHT22;42072;48.044;14.416;2023-06-10T13:57:14;21.10;1.00
38359;DHT22;42072;48.044;14.416;2023-06-10T13:59:41;20.90;1.00
38359;DHT22;42072;48.044;14.416;2023-06-10T14:02:08;21.00;1.00
38359;DHT22;42072;48.044;14.416;2023-06-10T14:04:36;20.90;1.00
38359;DHT22;42072;48.044;14.416;2023-06-10T14:07:03;20.80;1.00
38359;DHT22;42072;48.044;14.416;2023-06-10T14:09:31;20.70;1.00
38359;DHT22;42072;48.044;14.416;2023-06-10T14:11:58;20.60;1.00
38359;DHT22;42072;48.044;14.416;2023-06-10T14:14:26;20.50;1.00
38359;DHT22;42072;48.044;14.416;2023-06-10T14:16:53;20.50;1.00
38359;DHT22;42072;48.044;14.416;2023-06-10T14:19:20;20.30;1.00
38359;DHT22;42072;48.044;14.416;2023-06-10T14:21:47;20.30;13.20
38359;DHT22;42072;48.044;14.416;2023-06-10T14:24:16;20.20;1.00
38359;DHT22;42072;48.044;14.416;2023-06-10T14:26:44;20.20;6.70
38359;DHT22;42072;48.044;14.416;2023-06-10T14:29:11;20.20;1.00
38359;DHT22;42072;48.044;14.416;2023-06-10T14:31:41;20.10;21.00
38359;DHT22;42072;48.044;14.416;2023-06-10T14:34:08;20.00;1.80
38359;DHT22;42072;48.044;14.416;2023-06-10T14:36:36;19.90;1.00
38359;DHT22;42072;48.044;14.416;2023-06-10T14:39:04;20.00;22.60
38359;DHT22;42072;48.044;14.416;2023-06-10T14:41:31;20.20;90.10
38359;DHT22;42072;48.044;14.416;2023-06-10T14:43:59;20.40;99.90
38359;DHT22;42072;48.044;14.416;2023-06-10T14:46:26;20.30;36.90
38359;DHT22;42072;48.044;14.416;2023-06-10T14:48:53;20.40;92.20
38359;DHT22;42072;48.044;14.416;2023-06-10T14:51:20;20.30;84.80
38359;DHT22;42072;48.044;14.416;2023-06-10T14:53:47;20.30;91.00
38359;DHT22;42072;48.044;14.416;2023-06-10T14:56:15;20.40;99.90
38359;DHT22;42072;48.044;14.416;2023-06-10T14:58:43;20.50;48.90
38359;DHT22;42072;48.044;14.416;2023-06-10T15:01:10;20.50;47.10
38359;DHT22;42072;48.044;14.416;2023-06-10T15:03:37;20.60;40.20
38359;DHT22;42072;48.044;14.416;2023-06-10T15:06:05;20.60;22.30
38359;DHT22;42072;48.044;14.416;2023-06-10T15:08:32;20.60;1.00
38359;DHT22;42072;48.044;14.416;2023-06-10T15:10:59;20.40;1.00
38359;DHT22;42072;48.044;14.416;2023-06-10T15:13:28;20.30;1.00
38359;DHT22;42072;48.044;14.416;2023-06-10T15:15:55;20.40;1.00
38359;DHT22;42072;48.044;14.416;2023-06-10T15:18:22;20.40;1.00
38359;DHT22;42072;48.044;14.416;2023-06-10T15:20:49;20.50;1.00
38359;DHT22;42072;48.044;14.416;2023-06-10T15:23:16;20.50;1.00
38359;DHT22;42072;48.044;14.416;2023-06-10T15:25:44;20.60;1.00
38359;DHT22;42072;48.044;14.416;2023-06-10T15:28:12;20.80;1.00
38359;DHT22;42072;48.044;14.416;2023-06-10T15:30:39;20.90;1.00
38359;DHT22;42072;48.044;14.416;2023-06-10T15:33:06;21.00;1.00
38359;DHT22;42072;48.044;14.416;2023-06-10T15:35:33;21.10;1.00
38359;DHT22;42072;48.044;14.416;2023-06-10T15:38:01;21.10;1.00
38359;DHT22;42072;48.044;14.416;2023-06-10T15:40:28;21.20;1.00
38359;DHT22;42072;48.044;14.416;2023-06-10T15:42:56;21.20;1.00
38359;DHT22;42072;48.044;14.416;2023-06-10T15:45:23;21.20;1.00
38359;DHT22;42072;48.044;14.416;2023-06-10T15:47:50;21.10;1.00
38359;DHT22;42072;48.044;14.416;2023-06-10T15:50:18;21.10;1.00
38359;DHT22;42072;48.044;14.416;2023-06-10T15:52:45;21.20;1.00